Terminal Aerodrome Forecast
Issued by NWS Louisville, KY

Home | Current Version | Previous Version | Text Only | Print | Product List | Glossary On
Versions: 1 2 3 4 5 6 7 8 9 10 11 12 13 14 15
000
FTUS43 KLMK 051120
TAFBWG
TAF
KBWG 051120Z 0512/0612 28007KT P6SM VCSH BKN040
     FM051400 34012KT P6SM BKN022
     FM051700 34010G19KT P6SM BKN040
     FM060000 30005KT P6SM SCT050=

USA.gov is the U.S. government's official web portal to all federal, state and local government web resources and services.